Time;durP1;ratioP1;P1;durP2;ratioP2;P2;SDS_P1;SDS_P2;PMS_P1;PMS_P2;Temp;Humidity;BMP_temperature;BMP_pressure;BME280_temperature;BME280_humidity;BME280_pressure;Samples;Min_cycle;Max_cycle;Signal;HPM_P1;HPM_P2
2022/09/27 00:01:17;;;;;;;0.90;0.60;;;;;;;9.67;100.00;97004.47;4958501;28;20233;-65
2022/09/27 00:03:44;;;;;;;2.90;0.90;;;;;;;9.67;100.00;97000.06;4961431;28;20242;-64
2022/09/27 00:06:16;;;;;;;1.10;0.90;;;;;;;9.70;100.00;96996.28;4961101;28;20229;-64
2022/09/27 00:08:43;;;;;;;1.83;0.83;;;;;;;9.70;100.00;97015.34;4957017;28;20233;-64
2022/09/27 00:11:14;;;;;;;1.37;0.73;;;;;;;9.72;100.00;97020.34;4960939;28;20655;-65
2022/09/27 00:13:41;;;;;;;2.83;1.03;;;;;;;9.72;100.00;97017.75;4958519;28;20248;-64
2022/09/27 00:16:09;;;;;;;2.47;0.90;;;;;;;9.70;100.00;96994.50;4959917;28;20717;-64
2022/09/27 00:18:36;;;;;;;1.43;1.10;;;;;;;9.70;100.00;96989.28;4941595;28;20276;-64
2022/09/27 00:21:08;;;;;;;1.10;0.70;;;;;;;9.71;100.00;96988.28;4961388;28;20548;-63
2022/09/27 00:23:36;;;;;;;1.17;0.80;;;;;;;9.68;100.00;96993.03;4961062;28;20234;-64
2022/09/27 00:26:03;;;;;;;0.70;0.60;;;;;;;9.69;100.00;96997.25;4954262;28;20686;-64
2022/09/27 00:28:30;;;;;;;0.90;0.80;;;;;;;9.71;100.00;96980.47;4960452;28;20245;-64
2022/09/27 00:30:58;;;;;;;2.53;0.80;;;;;;;9.68;100.00;96980.03;4962292;28;20684;-64
2022/09/27 00:33:25;;;;;;;3.00;0.80;;;;;;;9.75;100.00;96981.72;4962775;28;20222;-64
2022/09/27 00:35:52;;;;;;;8.27;0.80;;;;;;;9.77;100.00;96983.31;4966079;28;20229;-64
2022/09/27 00:38:19;;;;;;;1.23;0.57;;;;;;;9.79;100.00;96986.56;4956935;28;20342;-64
2022/09/27 00:40:47;;;;;;;2.10;0.77;;;;;;;9.82;100.00;96979.16;4949700;28;20230;-64
2022/09/27 00:43:17;;;;;;;1.67;0.67;;;;;;;9.81;100.00;96981.97;4961673;28;20692;-64
2022/09/27 00:45:50;;;;;;;1.30;0.80;;;;;;;9.87;100.00;96974.19;4956219;28;20742;-64
2022/09/27 00:48:21;;;;;;;1.07;0.70;;;;;;;9.85;100.00;96970.97;4945737;28;20285;-64
2022/09/27 00:50:52;;;;;;;0.83;0.70;;;;;;;9.86;100.00;96969.19;4947747;28;20328;-64
2022/09/27 00:53:24;;;;;;;2.50;0.70;;;;;;;9.81;100.00;96956.69;4944580;28;20297;-64
2022/09/27 00:55:55;;;;;;;1.53;0.50;;;;;;;9.83;100.00;96954.72;4948093;28;20238;-64
2022/09/27 00:58:26;;;;;;;1.93;0.70;;;;;;;9.84;100.00;96963.34;4944573;28;20224;-64
2022/09/27 01:00:58;;;;;;;0.90;0.60;;;;;;;9.90;100.00;96970.41;4964986;28;20737;-64
2022/09/27 01:03:32;;;;;;;0.87;0.60;;;;;;;9.97;100.00;96970.47;4961972;28;20630;-64
2022/09/27 01:06:00;;;;;;;0.67;0.60;;;;;;;9.93;100.00;96975.25;4963062;28;20253;-64
2022/09/27 01:08:27;;;;;;;1.30;0.60;;;;;;;9.95;100.00;96970.66;4943674;28;20383;-64
2022/09/27 01:11:10;;;;;;;1.03;0.70;;;;;;;9.93;100.00;96998.72;4963567;28;20225;-62
2022/09/27 01:13:43;;;;;;;1.17;0.77;;;;;;;9.87;100.00;96992.44;4937583;28;20297;-62
2022/09/27 01:16:16;;;;;;;2.13;0.80;;;;;;;9.89;100.00;97003.47;4948113;28;20226;-62
2022/09/27 01:18:52;;;;;;;1.73;0.70;;;;;;;9.94;100.00;97004.72;4962360;28;20238;-62
2022/09/27 01:21:39;;;;;;;1.10;0.80;;;;;;;9.85;100.00;97024.91;4944736;28;20627;-62
2022/09/27 01:24:44;;;;;;;1.07;0.80;;;;;;;9.79;100.00;97020.44;4964298;28;20222;-62
2022/09/27 01:27:50;;;;;;;1.27;1.03;;;;;;;9.75;100.00;97006.94;4956960;28;20234;-62
2022/09/27 01:30:23;;;;;;;2.50;0.77;;;;;;;9.71;100.00;97022.16;4939601;28;20265;-62
2022/09/27 01:33:03;;;;;;;3.07;1.10;;;;;;;9.67;100.00;97038.31;4947574;28;20226;-62
2022/09/27 01:35:38;;;;;;;2.17;1.17;;;;;;;9.56;100.00;97050.84;4960818;28;20703;-62
2022/09/27 01:38:15;;;;;;;1.57;1.03;;;;;;;9.45;100.00;97056.53;4964851;28;20705;-62
2022/09/27 01:40:52;;;;;;;4.07;1.50;;;;;;;9.39;100.00;97063.28;4960374;28;20231;-62
2022/09/27 01:43:44;;;;;;;1.53;1.17;;;;;;;9.40;100.00;97087.53;4962044;28;20235;-62
2022/09/27 01:46:17;;;;;;;4.07;1.27;;;;;;;9.35;100.00;97082.06;4968557;28;20226;-62
2022/09/27 01:49:15;;;;;;;4.23;1.40;;;;;;;9.31;100.00;97089.41;4965225;28;20937;-62
2022/09/27 01:51:45;;;;;;;2.60;1.30;;;;;;;9.30;100.00;97082.59;4961720;28;20235;-63
2022/09/27 01:54:17;;;;;;;5.50;1.53;;;;;;;9.28;100.00;97079.34;4962029;28;20585;-63
2022/09/27 01:57:23;;;;;;;5.27;1.47;;;;;;;9.32;100.00;97077.22;4947251;28;20704;-63
2022/09/27 01:59:56;;;;;;;2.53;1.37;;;;;;;9.29;100.00;97083.56;4967717;28;20299;-63
2022/09/27 02:02:47;;;;;;;4.43;1.73;;;;;;;9.23;100.00;97085.13;4965740;28;20262;-63
2022/09/27 02:05:38;;;;;;;2.37;1.50;;;;;;;9.28;100.00;97084.56;4955082;28;20752;-63
2022/09/27 02:08:32;;;;;;;9.37;1.80;;;;;;;9.25;100.00;97090.94;4964718;28;20238;-63
2022/09/27 02:11:08;;;;;;;6.60;1.93;;;;;;;9.24;100.00;97083.31;4968649;28;20221;-63
2022/09/27 02:13:43;;;;;;;5.60;1.60;;;;;;;9.26;100.00;97084.75;4948193;28;20229;-63
2022/09/27 02:16:50;;;;;;;5.87;1.60;;;;;;;9.25;100.00;97090.13;4952102;28;20230;-63
2022/09/27 02:19:32;;;;;;;3.97;1.90;;;;;;;9.25;100.00;97090.13;4938113;28;20691;-63
2022/09/27 02:22:11;;;;;;;6.70;1.70;;;;;;;9.25;100.00;97085.75;4942802;28;20257;-63
2022/09/27 02:24:44;;;;;;;6.50;2.10;;;;;;;9.24;100.00;97088.50;4976062;28;20229;-63
2022/09/27 02:27:16;;;;;;;9.97;2.40;;;;;;;9.22;100.00;97086.09;4991228;28;20821;-63
2022/09/27 02:29:50;;;;;;;4.03;1.67;;;;;;;9.24;100.00;97086.72;4959146;28;20336;-63
2022/09/27 02:32:17;;;;;;;6.50;1.93;;;;;;;9.20;100.00;97087.25;4984161;28;20232;-64
2022/09/27 02:34:47;;;;;;;6.53;2.13;;;;;;;9.22;100.00;97086.09;4987156;28;20232;-64
2022/09/27 02:37:15;;;;;;;8.17;2.47;;;;;;;9.20;100.00;97082.88;4984255;28;20229;-64
2022/09/27 02:39:44;;;;;;;11.33;3.37;;;;;;;9.23;100.00;97098.13;4970720;28;20232;-64
2022/09/27 02:42:12;;;;;;;6.93;2.30;;;;;;;9.21;100.00;97094.91;4984430;28;20265;-64
2022/09/27 02:44:40;;;;;;;9.07;2.40;;;;;;;9.23;100.00;97095.53;4968242;28;20239;-64
2022/09/27 02:47:20;;;;;;;7.63;2.33;;;;;;;9.21;100.00;97099.28;4969919;28;20291;-63
2022/09/27 02:49:59;;;;;;;4.47;1.73;;;;;;;9.20;100.00;97095.88;4984348;28;20244;-63
2022/09/27 02:52:55;;;;;;;11.47;2.30;;;;;;;9.22;100.00;97098.28;4984333;28;20699;-63
2022/09/27 02:55:34;;;;;;;7.70;2.27;;;;;;;9.27;100.00;97102.00;4983667;28;20233;-63
2022/09/27 02:58:32;;;;;;;7.23;1.93;;;;;;;9.25;100.00;97090.94;4967794;28;20266;-63
2022/09/27 03:04:04;;;;;;;6.67;2.00;;;;;;;9.25;100.00;97111.78;5667260;23;20219;-58
2022/09/27 03:06:33;;;;;;;9.63;2.10;;;;;;;9.21;100.00;97102.72;4961807;28;20305;-56
2022/09/27 03:09:00;;;;;;;5.00;2.13;;;;;;;9.23;100.00;97105.13;4966258;28;20297;-56
2022/09/27 03:11:27;;;;;;;7.27;2.13;;;;;;;9.21;100.00;97115.72;4975108;28;20237;-57
2022/09/27 03:13:53;;;;;;;7.63;1.90;;;;;;;9.19;100.00;97101.25;4949801;28;20321;-56
2022/09/27 03:16:20;;;;;;;5.03;2.07;;;;;;;9.17;100.00;97109.25;4948242;28;20281;-56
2022/09/27 03:19:07;;;;;;;9.70;1.87;;;;;;;9.18;100.00;97113.47;4967706;28;20229;-57
2022/09/27 03:21:54;;;;;;;9.57;2.33;;;;;;;9.18;100.00;97120.47;4965828;28;20233;-55
2022/09/27 03:24:21;;;;;;;6.90;1.90;;;;;;;9.17;100.00;97124.88;4946331;28;20241;-57
2022/09/27 03:26:51;;;;;;;7.53;1.80;;;;;;;9.19;100.00;97130.72;4950762;28;20241;-57
2022/09/27 03:29:18;;;;;;;7.10;2.33;;;;;;;9.13;100.00;97139.25;4963710;28;20285;-55
2022/09/27 03:31:50;;;;;;;5.87;2.27;;;;;;;9.11;100.00;97133.41;4949958;28;20262;-56
2022/09/27 03:34:39;;;;;;;3.87;1.70;;;;;;;9.11;100.00;97133.41;4963182;28;20241;-56
2022/09/27 03:37:08;;;;;;;8.87;2.93;;;;;;;9.08;100.00;97136.38;4950150;28;20239;-57
2022/09/27 03:39:34;;;;;;;6.47;1.63;;;;;;;9.04;100.00;97141.09;4947112;28;20249;-58
2022/09/27 03:42:01;;;;;;;4.40;1.63;;;;;;;9.05;100.00;97137.50;4952321;28;20229;-57
2022/09/27 03:44:28;;;;;;;4.43;2.07;;;;;;;8.99;100.00;97128.63;4947179;28;20273;-56
2022/09/27 03:46:55;;;;;;;7.73;1.97;;;;;;;8.95;100.00;97134.38;4966623;28;20234;-56
2022/09/27 03:49:21;;;;;;;9.00;2.00;;;;;;;8.96;100.00;97131.59;4947173;28;20244;-56
2022/09/27 03:51:48;;;;;;;7.33;1.67;;;;;;;8.95;100.00;97142.97;4950147;28;21237;-56
2022/09/27 03:54:16;;;;;;;3.63;1.37;;;;;;;8.89;100.00;97120.28;4964160;28;20237;-57
2022/09/27 03:56:43;;;;;;;4.33;1.67;;;;;;;8.92;100.00;97130.31;4967379;28;20238;-57
2022/09/27 03:59:11;;;;;;;4.83;1.87;;;;;;;8.91;100.00;97126.09;4949368;28;20222;-55
2022/09/27 04:01:58;;;;;;;4.67;1.90;;;;;;;8.90;100.00;97127.09;4964684;28;20237;-56
2022/09/27 04:04:44;;;;;;;3.53;1.73;;;;;;;8.94;100.00;97130.97;4964494;28;20245;-57
2022/09/27 04:07:11;;;;;;;4.07;1.57;;;;;;;8.95;100.00;97129.19;4948965;28;20241;-56
2022/09/27 04:09:40;;;;;;;7.23;2.10;;;;;;;8.99;100.00;97133.03;4963997;28;20238;-56
2022/09/27 04:12:07;;;;;;;7.60;1.90;;;;;;;9.01;100.00;97129.25;4949296;28;20213;-57
2022/09/27 04:14:34;;;;;;;4.87;1.90;;;;;;;9.04;100.00;97130.69;4945906;28;20373;-57
2022/09/27 04:17:19;;;;;;;8.17;1.97;;;;;;;9.05;100.00;97131.50;4964520;28;20237;-55
2022/09/27 04:20:07;;;;;;;6.50;1.80;;;;;;;9.05;100.00;97162.75;4966767;28;20288;-56
2022/09/27 04:22:39;;;;;;;7.67;1.97;;;;;;;8.93;100.00;97138.97;4962963;28;21248;-57
2022/09/27 04:25:09;;;;;;;4.43;1.70;;;;;;;8.92;100.00;97155.56;4950517;28;20225;-55
2022/09/27 04:27:42;;;;;;;5.10;1.93;;;;;;;8.89;100.00;97158.50;4943053;28;20222;-57
2022/09/27 04:30:10;;;;;;;6.73;2.10;;;;;;;8.83;100.00;97153.03;4941612;28;20234;-57
2022/09/27 04:33:00;;;;;;;8.07;2.30;;;;;;;8.82;100.00;97161.81;4925949;28;20243;-57
2022/09/27 04:38:31;;;;;;;7.30;2.03;;;;;;;8.79;100.00;97163.94;4934111;28;20285;-59
2022/09/27 04:41:00;;;;;;;4.53;1.83;;;;;;;8.82;100.00;97171.41;4948423;28;20576;-56
2022/09/27 04:43:27;;;;;;;6.53;2.17;;;;;;;8.80;100.00;97173.38;4937091;28;20236;-57
2022/09/27 04:45:54;;;;;;;6.73;2.17;;;;;;;8.78;100.00;97175.34;4949089;28;20261;-57
2022/09/27 04:48:21;;;;;;;6.73;1.93;;;;;;;8.80;100.00;97187.19;4962178;28;20242;-58
2022/09/27 04:50:55;;;;;;;9.07;2.30;;;;;;;8.76;100.00;97196.34;4946763;28;20240;-56
2022/09/27 04:53:21;;;;;;;7.80;2.57;;;;;;;8.73;100.00;97199.28;4961697;28;20238;-56
2022/09/27 04:55:49;;;;;;;7.07;2.10;;;;;;;8.74;100.00;97200.06;4952114;28;20273;-57
2022/09/27 04:58:17;;;;;;;5.47;2.10;;;;;;;8.74;100.00;97194.88;4945968;28;20241;-57
2022/09/27 05:00:44;;;;;;;10.23;5.03;;;;;;;8.71;100.00;97209.84;4948805;28;20234;-57
2022/09/27 05:03:33;;;;;;;3.63;1.50;;;;;;;8.67;100.00;97216.38;4960614;28;20817;-57
2022/09/27 05:06:09;;;;;;;4.63;1.60;;;;;;;8.61;100.00;97209.25;4964204;28;20229;-57
2022/09/27 05:08:36;;;;;;;5.00;1.70;;;;;;;8.62;100.00;97210.88;4946834;28;20236;-57
2022/09/27 05:11:15;;;;;;;10.97;3.47;;;;;;;8.63;100.00;97220.31;4963505;28;20578;-57
2022/09/27 05:13:59;;;;;;;4.43;1.47;;;;;;;8.60;100.00;97223.25;4949478;28;20808;-57
2022/09/27 05:16:26;;;;;;;6.20;1.30;;;;;;;8.57;100.00;97216.63;4946032;28;20230;-57
2022/09/27 05:19:31;;;;;;;3.53;1.70;;;;;;;8.53;100.00;97232.72;4961898;28;20238;-57
2022/09/27 05:22:19;;;;;;;4.10;1.10;;;;;;;8.52;100.00;97234.53;4926494;28;20237;-57
2022/09/27 05:24:47;;;;;;;5.63;1.77;;;;;;;8.49;100.00;97241.84;4948292;28;20328;-57
2022/09/27 05:27:17;;;;;;;3.30;0.90;;;;;;;8.53;100.00;97237.94;4948165;28;20621;-57
2022/09/27 05:29:45;;;;;;;1.50;0.93;;;;;;;8.55;100.00;97243.75;4962405;28;20234;-56
2022/09/27 05:32:18;;;;;;;4.00;1.33;;;;;;;8.49;100.00;97247.06;4945416;28;20235;-58
2022/09/27 05:34:52;;;;;;;3.13;1.10;;;;;;;8.46;100.00;97243.00;4965372;28;20234;-57
2022/09/27 05:37:19;;;;;;;3.93;1.37;;;;;;;8.54;100.00;97247.34;4933916;28;20705;-58
2022/09/27 05:39:47;;;;;;;4.00;1.27;;;;;;;8.52;100.00;97246.72;4940264;28;20237;-56
2022/09/27 05:42:14;;;;;;;4.30;1.33;;;;;;;8.59;100.00;97252.84;4948282;28;20244;-57
2022/09/27 05:44:46;;;;;;;4.90;1.00;;;;;;;8.54;100.00;97249.94;4945559;28;20240;-58
2022/09/27 05:47:15;;;;;;;2.47;1.17;;;;;;;8.46;100.00;97255.19;4947866;28;20230;-58
2022/09/27 05:49:42;;;;;;;5.47;1.60;;;;;;;8.49;100.00;97260.06;4946476;28;20638;-57
2022/09/27 05:52:11;;;;;;;3.57;1.20;;;;;;;8.52;100.00;97257.94;4947862;28;20237;-59
2022/09/27 05:54:38;;;;;;;2.77;1.50;;;;;;;8.53;100.00;97263.94;4945567;28;20273;-58
2022/09/27 05:57:07;;;;;;;2.77;1.70;;;;;;;8.51;100.00;97268.50;4964146;28;20789;-58
2022/09/27 05:59:42;;;;;;;2.93;1.33;;;;;;;8.53;100.00;97263.94;4944992;28;20750;-56
2022/09/27 06:02:36;;;;;;;2.33;1.40;;;;;;;8.53;100.00;97272.56;4935510;28;20245;-58
2022/09/27 06:05:22;;;;;;;2.50;1.40;;;;;;;8.57;100.00;97288.63;4962098;28;20236;-58
2022/09/27 06:07:52;;;;;;;3.20;1.67;;;;;;;8.55;100.00;97277.56;4964698;28;20762;-58
2022/09/27 06:10:25;;;;;;;2.70;1.40;;;;;;;8.55;100.00;97282.78;4961288;28;20292;-58
2022/09/27 06:12:51;;;;;;;2.93;1.30;;;;;;;8.50;100.00;97287.69;4965559;28;20333;-57
2022/09/27 06:15:33;;;;;;;6.60;2.60;;;;;;;8.51;100.00;97278.91;4944762;28;20240;-58
2022/09/27 06:18:05;;;;;;;3.63;1.67;;;;;;;8.54;100.00;97286.34;4965687;28;20241;-57
2022/09/27 06:20:33;;;;;;;3.67;1.13;;;;;;;8.53;100.00;97288.16;4939556;28;20289;-57
2022/09/27 06:23:07;;;;;;;1.97;1.10;;;;;;;8.56;100.00;97287.81;4964920;28;20230;-57
2022/09/27 06:25:35;;;;;;;3.47;1.53;;;;;;;8.53;100.00;97298.56;4945338;28;20241;-57
2022/09/27 06:28:26;;;;;;;4.83;1.80;;;;;;;8.55;100.00;97299.22;4917276;28;20241;-57
2022/09/27 06:30:56;;;;;;;5.60;1.87;;;;;;;8.59;100.00;97298.88;4964161;28;20233;-57
2022/09/27 06:33:50;;;;;;;6.00;1.93;;;;;;;8.54;100.00;97299.38;4942905;28;20799;-56
2022/09/27 06:36:17;;;;;;;5.47;2.00;;;;;;;8.60;100.00;97309.09;4948254;28;20583;-57
2022/09/27 06:38:47;;;;;;;3.83;1.70;;;;;;;8.62;100.00;97312.31;4951171;28;20686;-57
2022/09/27 06:41:22;;;;;;;4.63;1.37;;;;;;;8.58;100.00;97318.84;4940364;28;20320;-57
2022/09/27 06:44:04;;;;;;;4.67;1.10;;;;;;;8.57;100.00;97325.84;4950955;28;20712;-59
2022/09/27 06:47:03;;;;;;;4.40;1.50;;;;;;;8.56;100.00;97321.63;4966388;28;20609;-58
2022/09/27 06:49:50;;;;;;;5.60;1.07;;;;;;;8.54;100.00;97318.41;4966285;28;20360;-57
2022/09/27 06:52:18;;;;;;;4.57;1.80;;;;;;;8.55;100.00;97325.22;4942878;28;20732;-57
2022/09/27 06:54:45;;;;;;;3.90;1.90;;;;;;;8.56;100.00;97321.63;4970201;28;20233;-58
2022/09/27 07:00:22;;;;;;;2.90;1.60;;;;;;;8.59;100.00;97328.28;4970342;28;20237;-57
2022/09/27 07:03:21;;;;;;;2.80;1.53;;;;;;;8.64;100.00;97335.59;4970406;28;20619;-58
2022/09/27 07:06:17;;;;;;;5.23;1.67;;;;;;;8.64;100.00;97333.78;4987327;28;20708;-57
2022/09/27 07:08:50;;;;;;;5.17;1.70;;;;;;;8.60;100.00;97329.09;4985044;28;20233;-56
2022/09/27 07:11:17;;;;;;;3.47;1.60;;;;;;;8.60;100.00;97323.91;4966915;28;20230;-56
2022/09/27 07:13:44;;;;;;;4.37;1.40;;;;;;;8.62;100.00;97312.31;4987278;28;20354;-57
2022/09/27 07:16:12;;;;;;;4.77;1.37;;;;;;;8.65;100.00;97319.00;4969116;28;20642;-56
2022/09/27 07:18:39;;;;;;;2.87;1.10;;;;;;;8.74;100.00;97344.00;4968861;28;20237;-58
2022/09/27 07:21:08;;;;;;;6.57;1.70;;;;;;;8.62;100.00;97338.34;4961115;28;20253;-58
2022/09/27 07:23:35;;;;;;;4.50;1.50;;;;;;;8.54;100.00;97340.97;4966856;28;20243;-59
2022/09/27 07:26:05;;;;;;;5.30;1.83;;;;;;;8.67;100.00;97341.25;4981853;28;20244;-57
2022/09/27 07:28:33;;;;;;;2.17;1.20;;;;;;;8.68;100.00;97340.25;4967433;28;20225;-54
2022/09/27 07:31:02;;;;;;;1.93;1.40;;;;;;;8.78;100.00;97345.28;4969039;28;20233;-59
2022/09/27 07:33:29;;;;;;;2.70;1.23;;;;;;;8.71;100.00;97350.34;4966375;28;20753;-57
2022/09/27 07:35:56;;;;;;;2.97;1.20;;;;;;;8.74;100.00;97354.41;4966394;28;20230;-57
2022/09/27 07:38:25;;;;;;;4.27;1.80;;;;;;;8.59;100.00;97367.28;4965984;28;20233;-56
2022/09/27 07:40:52;;;;;;;3.37;1.50;;;;;;;8.56;100.00;97372.84;4980692;28;20241;-56
2022/09/27 07:43:19;;;;;;;4.10;2.37;;;;;;;8.63;100.00;97375.59;4964518;28;20240;-56
2022/09/27 07:45:46;;;;;;;2.40;1.43;;;;;;;8.61;100.00;97380.94;4969549;28;20229;-56
2022/09/27 07:48:51;;;;;;;4.80;1.50;;;;;;;8.35;100.00;97379.41;4966014;28;20233;-58
2022/09/27 07:51:53;;;;;;;3.50;1.30;;;;;;;8.41;100.00;97398.72;4950000;28;20240;-56
2022/09/27 07:54:39;;;;;;;3.00;1.40;;;;;;;8.38;100.00;97399.88;4983636;28;20245;-56
2022/09/27 07:57:06;;;;;;;3.67;1.90;;;;;;;8.38;100.00;97383.44;4986704;28;20229;-57
2022/09/27 07:59:40;;;;;;;2.27;1.30;;;;;;;8.32;100.00;97386.72;4966151;28;20232;-57
2022/09/27 08:02:13;;;;;;;1.87;1.00;;;;;;;8.33;100.00;97388.31;4968764;28;20226;-58
2022/09/27 08:04:42;;;;;;;3.37;1.10;;;;;;;8.34;100.00;97387.34;4966061;28;20702;-58
2022/09/27 08:07:09;;;;;;;1.20;0.87;;;;;;;8.31;100.00;97393.72;4968548;28;20578;-58
2022/09/27 08:09:36;;;;;;;3.93;1.17;;;;;;;8.40;100.00;97392.72;4958046;28;20232;-58
2022/09/27 08:12:04;;;;;;;1.83;1.20;;;;;;;8.41;100.00;97391.72;4986059;28;20665;-59
2022/09/27 08:14:31;;;;;;;2.33;1.20;;;;;;;8.49;100.00;97387.47;4965485;28;20312;-59
2022/09/27 08:16:58;;;;;;;3.60;1.17;;;;;;;8.58;100.00;97396.88;4968563;28;20588;-58
2022/09/27 08:19:28;;;;;;;2.33;1.00;;;;;;;8.85;99.21;97397.44;4982779;28;20225;-56
2022/09/27 08:22:03;;;;;;;2.67;1.60;;;;;;;9.12;99.51;97393.53;4986252;28;20283;-57
2022/09/27 08:24:56;;;;;;;1.77;1.10;;;;;;;9.27;97.89;97391.00;4977887;28;20754;-57
2022/09/27 08:27:55;;;;;;;4.83;1.10;;;;;;;9.49;95.76;97385.16;4965480;28;20623;-57
2022/09/27 08:30:34;;;;;;;3.43;2.37;;;;;;;9.71;96.70;97386.13;4972710;28;20250;-57
2022/09/27 08:33:02;;;;;;;1.90;0.90;;;;;;;9.78;93.67;97387.03;4968379;28;20260;-57
2022/09/27 08:35:29;;;;;;;2.70;0.97;;;;;;;10.06;94.37;97396.09;4982496;28;20221;-58
2022/09/27 08:37:58;;;;;;;5.30;1.80;;;;;;;10.08;93.37;97392.31;4985825;28;20234;-57
2022/09/27 08:40:37;;;;;;;3.23;1.57;;;;;;;10.13;93.14;97392.59;4980925;28;20236;-55
2022/09/27 08:43:19;;;;;;;2.20;1.60;;;;;;;10.37;94.25;97376.84;4983894;28;20324;-58
2022/09/27 08:46:00;;;;;;;3.47;1.60;;;;;;;10.63;94.28;97395.50;4969022;28;20235;-57
2022/09/27 08:48:29;;;;;;;4.23;1.73;;;;;;;10.82;93.54;97392.50;4953443;28;20234;-57
2022/09/27 08:50:57;;;;;;;4.57;1.73;;;;;;;11.08;91.90;97390.19;4968263;28;20241;-57
2022/09/27 08:53:28;;;;;;;5.87;1.90;;;;;;;11.26;90.63;97378.50;4963257;28;20250;-57
2022/09/27 08:55:57;;;;;;;3.70;1.50;;;;;;;11.45;90.83;97382.31;4967199;28;20230;-58
2022/09/27 08:58:32;;;;;;;4.20;1.63;;;;;;;11.56;91.73;97383.63;4965412;28;20317;-59
2022/09/27 09:01:02;;;;;;;4.23;1.50;;;;;;;11.58;88.88;97384.25;4963627;28;20313;-60
2022/09/27 09:03:39;;;;;;;3.40;1.60;;;;;;;12.14;85.96;97384.47;5017273;23;20234;-59
2022/09/27 09:06:14;;;;;;;6.97;1.70;;;;;;;11.81;82.07;97372.75;4994924;28;20229;-56
2022/09/27 09:08:51;;;;;;;6.00;1.70;;;;;;;11.94;78.93;97364.19;4979870;28;20245;-58
2022/09/27 09:14:42;;;;;;;3.60;1.70;;;;;;;12.58;81.86;97367.59;4982641;28;20242;-58
2022/09/27 09:17:20;;;;;;;3.97;1.83;;;;;;;12.41;83.75;97374.97;4987097;28;20239;-57
2022/09/27 09:20:33;;;;;;;7.57;1.57;;;;;;;12.51;80.04;97372.81;5001490;28;20235;-58
2022/09/27 09:23:22;;;;;;;6.03;2.17;;;;;;;12.19;84.35;97374.25;4984066;28;20341;-57
2022/09/27 09:25:57;;;;;;;7.80;2.43;;;;;;;11.77;84.84;97374.13;4976816;28;20246;-57
2022/09/27 09:28:41;;;;;;;5.80;2.10;;;;;;;12.00;84.86;97355.63;5000622;28;20225;-57
2022/09/27 09:31:19;;;;;;;3.67;1.80;;;;;;;12.07;80.32;97360.88;4986851;28;20630;-58
2022/09/27 09:33:52;;;;;;;3.40;1.70;;;;;;;12.04;80.45;97354.25;5001915;28;20259;-58
2022/09/27 09:36:27;;;;;;;4.73;3.00;;;;;;;11.66;85.71;97359.75;4975324;28;20485;-57
2022/09/27 09:38:58;;;;;;;5.27;1.93;;;;;;;11.75;84.64;97353.41;4979714;28;20229;-58
2022/09/27 09:41:30;;;;;;;2.80;1.70;;;;;;;11.83;82.61;97347.22;4985148;28;20304;-59
2022/09/27 09:44:02;;;;;;;7.70;1.90;;;;;;;12.15;80.91;97350.28;4986660;28;20988;-59
2022/09/27 09:46:35;;;;;;;3.50;1.97;;;;;;;11.63;84.47;97337.44;4982368;28;20235;-58
2022/09/27 09:49:13;;;;;;;5.23;2.30;;;;;;;12.05;80.88;97331.50;5002598;28;20696;-58
2022/09/27 09:51:46;;;;;;;4.63;1.60;;;;;;;11.88;80.46;97325.75;4965182;28;20758;-59
2022/09/27 09:54:19;;;;;;;4.80;2.00;;;;;;;12.36;80.77;97340.72;4983204;28;20244;-58
2022/09/27 09:56:50;;;;;;;2.87;1.53;;;;;;;12.57;80.78;97339.00;4984532;28;20233;-58
2022/09/27 09:59:20;;;;;;;3.90;1.30;;;;;;;12.92;76.36;97336.28;5000404;28;20234;-57
2022/09/27 10:01:56;;;;;;;3.83;1.30;;;;;;;12.47;77.28;97341.97;4981736;28;20237;-58
2022/09/27 10:04:26;;;;;;;2.73;1.90;;;;;;;12.89;76.09;97324.41;4977037;28;20654;-59
2022/09/27 10:06:57;;;;;;;5.53;1.80;;;;;;;12.98;75.42;97328.47;4998540;28;20263;-59
2022/09/27 10:09:27;;;;;;;7.43;2.03;;;;;;;12.53;78.15;97330.72;4987152;28;20226;-59
2022/09/27 10:12:13;;;;;;;3.47;1.20;;;;;;;12.80;75.48;97320.34;5008292;28;20968;-57
2022/09/27 10:14:45;;;;;;;3.77;1.57;;;;;;;13.10;78.67;97312.94;5004226;28;20247;-60
2022/09/27 10:17:18;;;;;;;3.70;2.97;;;;;;;12.68;79.02;97313.06;5006821;28;20715;-57
2022/09/27 10:19:48;;;;;;;3.73;1.40;;;;;;;11.48;79.10;97308.75;4987839;28;20238;-57
2022/09/27 10:22:22;;;;;;;2.53;1.53;;;;;;;11.62;80.11;97314.91;5003508;28;20678;-58
2022/09/27 10:24:58;;;;;;;3.83;1.33;;;;;;;11.90;80.48;97313.28;4989926;28;20232;-58
2022/09/27 10:27:46;;;;;;;3.67;1.50;;;;;;;11.77;81.75;97317.44;4996179;28;20232;-57
2022/09/27 10:30:28;;;;;;;2.87;1.20;;;;;;;11.85;81.17;97313.06;5002116;28;20312;-57
2022/09/27 10:33:00;;;;;;;5.30;1.43;;;;;;;11.81;82.84;97323.88;4989781;28;20229;-57
2022/09/27 10:35:48;;;;;;;6.40;1.43;;;;;;;11.85;81.77;97326.91;4983391;28;20277;-58
2022/09/27 10:38:26;;;;;;;2.90;1.30;;;;;;;11.89;84.59;97325.53;4966598;28;20788;-57
2022/09/27 10:41:16;;;;;;;2.43;1.20;;;;;;;11.31;86.53;97339.59;4985585;28;20351;-57
2022/09/27 10:43:45;;;;;;;3.07;1.13;;;;;;;11.74;84.00;97328.25;4979897;28;20232;-57
2022/09/27 10:46:31;;;;;;;2.87;1.10;;;;;;;11.49;85.02;97338.31;4986226;28;20286;-58
2022/09/27 10:49:21;;;;;;;2.03;1.37;;;;;;;11.74;82.83;97338.72;4989725;28;20229;-57
2022/09/27 10:51:52;;;;;;;1.97;1.10;;;;;;;11.78;83.69;97331.28;4966843;28;20625;-57
2022/09/27 10:54:23;;;;;;;3.37;1.27;;;;;;;11.49;83.63;97326.06;4969639;28;20241;-56
2022/09/27 10:57:00;;;;;;;2.10;0.90;;;;;;;11.32;85.81;97316.88;4976493;28;20234;-57
2022/09/27 10:59:30;;;;;;;7.17;1.30;;;;;;;11.58;84.71;97320.69;5002363;28;20243;-58
2022/09/27 11:01:58;;;;;;;5.07;2.10;;;;;;;11.49;84.66;97320.03;5004583;28;20252;-59
2022/09/27 11:04:38;;;;;;;2.13;0.83;;;;;;;11.32;83.11;97317.69;4985632;28;20335;-60
2022/09/27 11:07:14;;;;;;;2.63;1.27;;;;;;;11.48;85.37;97313.19;5006687;28;20230;-60
2022/09/27 11:09:51;;;;;;;73.67;32.60;;;;;;;11.07;83.89;97317.25;4985757;28;20245;-57
2022/09/27 11:12:19;;;;;;;5.93;3.23;;;;;;;11.02;87.10;97320.41;4978252;28;20240;-57
2022/09/27 11:14:55;;;;;;;7.03;5.00;;;;;;;11.12;88.83;97322.75;4988425;28;20237;-57
2022/09/27 11:17:29;;;;;;;6.20;5.63;;;;;;;11.08;88.05;97324.91;4982696;28;20308;-58
2022/09/27 11:20:25;;;;;;;4.13;2.13;;;;;;;10.96;89.14;97322.97;5001571;28;20248;-57
2022/09/27 11:23:12;;;;;;;7.23;4.30;;;;;;;10.93;90.85;97326.75;4981913;28;20646;-56
2022/09/27 11:25:46;;;;;;;6.13;2.37;;;;;;;10.67;92.52;97322.84;4984308;28;20654;-57
2022/09/27 11:28:28;;;;;;;8.90;2.90;;;;;;;10.90;91.55;97324.50;4986705;28;20263;-56
2022/09/27 11:31:06;;;;;;;3.20;1.60;;;;;;;11.18;90.04;97329.81;4983887;28;20248;-57
2022/09/27 11:34:01;;;;;;;4.77;1.67;;;;;;;11.07;89.23;97317.25;4983759;28;20228;-56
2022/09/27 11:36:51;;;;;;;3.67;1.90;;;;;;;10.94;89.87;97310.09;4985395;28;20231;-57
2022/09/27 11:39:26;;;;;;;7.10;3.60;;;;;;;10.94;89.31;97312.69;4999688;28;20229;-56
2022/09/27 11:42:15;;;;;;;4.37;2.23;;;;;;;10.81;90.24;97309.94;4979563;28;20240;-56
2022/09/27 11:45:10;;;;;;;4.00;1.20;;;;;;;10.92;92.67;97314.69;4976454;28;20598;-56
2022/09/27 11:47:46;;;;;;;2.87;1.87;;;;;;;11.07;91.09;97312.03;4984168;28;21067;-56
2022/09/27 11:50:52;;;;;;;1.90;0.70;;;;;;;10.84;90.26;97309.59;5003993;28;20276;-56
2022/09/27 11:53:35;;;;;;;2.93;1.20;;;;;;;10.99;90.22;97299.91;4977018;28;20231;-56
2022/09/27 11:56:15;;;;;;;7.20;4.07;;;;;;;11.04;91.23;97300.16;4987694;28;20286;-58
2022/09/27 11:58:53;;;;;;;4.93;2.23;;;;;;;11.34;89.00;97289.56;4985482;28;20241;-57
2022/09/27 12:01:29;;;;;;;3.60;0.90;;;;;;;11.64;86.61;97299.03;4999903;28;20224;-58
2022/09/27 12:04:19;;;;;;;1.10;0.50;;;;;;;11.89;84.94;97295.97;5003708;28;20268;-56
2022/09/27 12:06:52;;;;;;;4.20;1.10;;;;;;;12.17;83.37;97301.19;5001657;28;20260;-59
2022/09/27 12:09:25;;;;;;;3.00;1.67;;;;;;;11.93;82.93;97291.97;5001008;28;20271;-54
2022/09/27 12:11:55;;;;;;;1.73;1.07;;;;;;;12.08;84.73;97289.25;4988290;28;21130;-55
2022/09/27 12:14:29;;;;;;;2.87;0.70;;;;;;;12.33;83.67;97294.00;5000491;28;20276;-56
2022/09/27 12:16:58;;;;;;;2.57;1.20;;;;;;;12.09;84.20;97280.41;4987229;28;20232;-56
2022/09/27 12:19:31;;;;;;;2.53;1.87;;;;;;;12.36;83.73;97286.56;4984817;28;20760;-55
2022/09/27 12:22:24;;;;;;;3.10;1.43;;;;;;;12.78;80.61;97278.63;4984440;28;20229;-56
2022/09/27 12:24:53;;;;;;;6.77;1.07;;;;;;;12.22;82.33;97275.25;4978663;28;20242;-55